sensor_id;sensor_type;location;lat;lon;timestamp;temperature;humidity
814;DHT22;389;48.710;9.392;2023-04-02T00:00:33;10.20;96.20
814;DHT22;389;48.710;9.392;2023-04-02T00:03:06;10.20;96.20
814;DHT22;389;48.710;9.392;2023-04-02T00:05:43;10.20;96.20
814;DHT22;389;48.710;9.392;2023-04-02T00:08:35;10.00;96.10
814;DHT22;389;48.710;9.392;2023-04-02T00:11:13;10.10;96.10
814;DHT22;389;48.710;9.392;2023-04-02T00:13:54;9.90;96.60
814;DHT22;389;48.710;9.392;2023-04-02T00:16:40;10.10;96.30
814;DHT22;389;48.710;9.392;2023-04-02T00:19:12;10.10;96.30
814;DHT22;389;48.710;9.392;2023-04-02T00:21:45;10.10;96.20
814;DHT22;389;48.710;9.392;2023-04-02T00:24:17;10.00;96.20
814;DHT22;389;48.710;9.392;2023-04-02T00:26:50;10.10;96.30
814;DHT22;389;48.710;9.392;2023-04-02T00:29:17;10.00;96.40
814;DHT22;389;48.710;9.392;2023-04-02T00:31:53;9.90;96.90
814;DHT22;389;48.710;9.392;2023-04-02T00:34:30;9.90;97.00
814;DHT22;389;48.710;9.392;2023-04-02T00:36:57;9.90;97.00
814;DHT22;389;48.710;9.392;2023-04-02T00:39:26;9.80;97.00
814;DHT22;389;48.710;9.392;2023-04-02T00:41:54;9.80;97.10
814;DHT22;389;48.710;9.392;2023-04-02T00:44:22;9.80;97.20
814;DHT22;389;48.710;9.392;2023-04-02T00:46:49;9.80;97.20
814;DHT22;389;48.710;9.392;2023-04-02T00:49:35;9.80;97.20
814;DHT22;389;48.710;9.392;2023-04-02T00:52:07;9.70;97.10
814;DHT22;389;48.710;9.392;2023-04-02T00:54:44;9.70;97.10
814;DHT22;389;48.710;9.392;2023-04-02T00:57:15;9.70;97.20
814;DHT22;389;48.710;9.392;2023-04-02T01:02:38;9.70;97.20
814;DHT22;389;48.710;9.392;2023-04-02T01:13:21;9.70;97.20
814;DHT22;389;48.710;9.392;2023-04-02T01:15:55;9.80;97.20
814;DHT22;389;48.710;9.392;2023-04-02T01:18:42;9.80;97.20
814;DHT22;389;48.710;9.392;2023-04-02T01:21:23;9.80;97.20
814;DHT22;389;48.710;9.392;2023-04-02T01:24:34;9.80;97.10
814;DHT22;389;48.710;9.392;2023-04-02T01:27:00;9.80;97.10
814;DHT22;389;48.710;9.392;2023-04-02T01:29:53;9.80;97.10
814;DHT22;389;48.710;9.392;2023-04-02T01:32:22;9.90;97.10
814;DHT22;389;48.710;9.392;2023-04-02T01:34:49;9.90;97.00
814;DHT22;389;48.710;9.392;2023-04-02T01:42:52;9.90;97.00
814;DHT22;389;48.710;9.392;2023-04-02T01:45:24;9.90;96.90
814;DHT22;389;48.710;9.392;2023-04-02T01:47:50;9.90;97.00
814;DHT22;389;48.710;9.392;2023-04-02T01:52:47;10.00;96.50
814;DHT22;389;48.710;9.392;2023-04-02T01:55:18;9.90;96.90
814;DHT22;389;48.710;9.392;2023-04-02T01:57:49;9.90;97.00
814;DHT22;389;48.710;9.392;2023-04-02T02:00:16;9.90;97.10
814;DHT22;389;48.710;9.392;2023-04-02T02:03:01;9.90;97.00
814;DHT22;389;48.710;9.392;2023-04-02T02:05:27;9.80;96.90
814;DHT22;389;48.710;9.392;2023-04-02T02:07:55;9.80;97.00
814;DHT22;389;48.710;9.392;2023-04-02T02:10:48;9.90;96.90
814;DHT22;389;48.710;9.392;2023-04-02T02:13:14;9.90;96.90
814;DHT22;389;48.710;9.392;2023-04-02T02:15:40;9.90;96.90
814;DHT22;389;48.710;9.392;2023-04-02T02:18:09;9.90;96.90
814;DHT22;389;48.710;9.392;2023-04-02T02:20:36;9.90;97.20
814;DHT22;389;48.710;9.392;2023-04-02T02:23:02;9.90;97.00
814;DHT22;389;48.710;9.392;2023-04-02T02:25:31;10.00;96.50
814;DHT22;389;48.710;9.392;2023-04-02T02:30:54;9.90;97.20
814;DHT22;389;48.710;9.392;2023-04-02T02:38:54;9.90;97.30
814;DHT22;389;48.710;9.392;2023-04-02T02:41:44;9.90;97.40
814;DHT22;389;48.710;9.392;2023-04-02T02:44:22;9.90;97.40
814;DHT22;389;48.710;9.392;2023-04-02T02:49:29;10.00;97.00
814;DHT22;389;48.710;9.392;2023-04-02T02:54:35;9.90;97.70
814;DHT22;389;48.710;9.392;2023-04-02T02:57:05;9.90;97.70
814;DHT22;389;48.710;9.392;2023-04-02T02:59:32;9.90;97.80
814;DHT22;389;48.710;9.392;2023-04-02T03:01:59;9.90;97.80
814;DHT22;389;48.710;9.392;2023-04-02T03:04:25;9.90;97.80
814;DHT22;389;48.710;9.392;2023-04-02T03:06:56;9.90;97.90
814;DHT22;389;48.710;9.392;2023-04-02T03:12:27;9.90;98.00
814;DHT22;389;48.710;9.392;2023-04-02T03:15:05;9.90;98.10
814;DHT22;389;48.710;9.392;2023-04-02T03:17:38;9.90;98.20
814;DHT22;389;48.710;9.392;2023-04-02T03:20:12;9.90;98.30
814;DHT22;389;48.710;9.392;2023-04-02T03:25:42;9.90;98.60
814;DHT22;389;48.710;9.392;2023-04-02T03:28:15;9.90;98.70
814;DHT22;389;48.710;9.392;2023-04-02T03:30:48;9.90;98.70
814;DHT22;389;48.710;9.392;2023-04-02T03:33:44;9.80;98.90
814;DHT22;389;48.710;9.392;2023-04-02T03:38:53;9.80;99.00
814;DHT22;389;48.710;9.392;2023-04-02T03:41:21;9.80;99.10
814;DHT22;389;48.710;9.392;2023-04-02T03:43:53;9.80;99.20
814;DHT22;389;48.710;9.392;2023-04-02T03:46:54;9.80;99.30
814;DHT22;389;48.710;9.392;2023-04-02T03:49:38;9.80;99.30
814;DHT22;389;48.710;9.392;2023-04-02T03:52:13;9.80;99.40
814;DHT22;389;48.710;9.392;2023-04-02T03:54:39;9.70;99.40
814;DHT22;389;48.710;9.392;2023-04-02T03:57:20;9.80;99.50
814;DHT22;389;48.710;9.392;2023-04-02T04:00:12;9.70;99.50
814;DHT22;389;48.710;9.392;2023-04-02T04:02:48;9.70;99.50
814;DHT22;389;48.710;9.392;2023-04-02T04:05:47;9.70;99.60
814;DHT22;389;48.710;9.392;2023-04-02T04:08:16;9.80;99.80
814;DHT22;389;48.710;9.392;2023-04-02T04:10:43;9.60;99.80
814;DHT22;389;48.710;9.392;2023-04-02T04:13:13;9.60;99.90
814;DHT22;389;48.710;9.392;2023-04-02T04:16:03;9.60;99.90
814;DHT22;389;48.710;9.392;2023-04-02T04:21:26;9.50;99.90
814;DHT22;389;48.710;9.392;2023-04-02T04:24:10;9.50;99.90
814;DHT22;389;48.710;9.392;2023-04-02T04:29:38;9.50;99.90
814;DHT22;389;48.710;9.392;2023-04-02T04:37:35;9.50;99.90
814;DHT22;389;48.710;9.392;2023-04-02T04:40:27;9.50;99.90
814;DHT22;389;48.710;9.392;2023-04-02T04:42:59;9.50;99.90
814;DHT22;389;48.710;9.392;2023-04-02T04:48:12;9.50;99.90
814;DHT22;389;48.710;9.392;2023-04-02T04:50:54;9.50;99.90
814;DHT22;389;48.710;9.392;2023-04-02T04:53:24;9.50;99.90
814;DHT22;389;48.710;9.392;2023-04-02T04:56:02;9.50;99.90
814;DHT22;389;48.710;9.392;2023-04-02T04:58:52;9.50;99.90
814;DHT22;389;48.710;9.392;2023-04-02T05:01:26;9.50;99.90
814;DHT22;389;48.710;9.392;2023-04-02T05:04:03;9.50;99.90
814;DHT22;389;48.710;9.392;2023-04-02T05:09:05;9.50;99.90
814;DHT22;389;48.710;9.392;2023-04-02T05:11:33;9.50;99.90
814;DHT22;389;48.710;9.392;2023-04-02T05:14:11;9.50;99.90
814;DHT22;389;48.710;9.392;2023-04-02T05:17:03;9.60;99.90
814;DHT22;389;48.710;9.392;2023-04-02T05:22:32;9.60;99.90
814;DHT22;389;48.710;9.392;2023-04-02T05:27:47;9.60;99.90
814;DHT22;389;48.710;9.392;2023-04-02T05:32:54;9.60;99.90
814;DHT22;389;48.710;9.392;2023-04-02T05:35:30;9.60;99.90
814;DHT22;389;48.710;9.392;2023-04-02T05:37:57;9.60;99.90
814;DHT22;389;48.710;9.392;2023-04-02T05:40:42;9.60;99.90
814;DHT22;389;48.710;9.392;2023-04-02T05:43:10;9.70;99.90
814;DHT22;389;48.710;9.392;2023-04-02T05:45:39;9.70;99.90
814;DHT22;389;48.710;9.392;2023-04-02T05:48:19;9.80;99.90
814;DHT22;389;48.710;9.392;2023-04-02T05:50:50;9.80;99.90
814;DHT22;389;48.710;9.392;2023-04-02T05:53:28;9.80;99.90
814;DHT22;389;48.710;9.392;2023-04-02T05:56:16;9.90;99.90
814;DHT22;389;48.710;9.392;2023-04-02T05:58:48;9.90;99.90
814;DHT22;389;48.710;9.392;2023-04-02T06:01:39;10.10;99.90
814;DHT22;389;48.710;9.392;2023-04-02T06:04:13;10.00;99.40
814;DHT22;389;48.710;9.392;2023-04-02T06:06:52;10.10;99.30
814;DHT22;389;48.710;9.392;2023-04-02T06:09:27;10.10;99.30
814;DHT22;389;48.710;9.392;2023-04-02T06:12:22;10.10;99.30
814;DHT22;389;48.710;9.392;2023-04-02T06:14:49;10.20;98.80
814;DHT22;389;48.710;9.392;2023-04-02T06:17:17;10.20;98.60
814;DHT22;389;48.710;9.392;2023-04-02T06:19:43;10.20;98.50
814;DHT22;389;48.710;9.392;2023-04-02T06:22:31;10.30;98.50
814;DHT22;389;48.710;9.392;2023-04-02T06:25:07;10.40;98.50
814;DHT22;389;48.710;9.392;2023-04-02T06:27:36;10.40;98.40
814;DHT22;389;48.710;9.392;2023-04-02T06:30:06;10.30;98.30
814;DHT22;389;48.710;9.392;2023-04-02T06:32:38;10.50;98.30
814;DHT22;389;48.710;9.392;2023-04-02T06:35:04;10.60;98.30
814;DHT22;389;48.710;9.392;2023-04-02T06:37:36;10.60;98.20
814;DHT22;389;48.710;9.392;2023-04-02T06:40:25;10.70;98.20
814;DHT22;389;48.710;9.392;2023-04-02T06:42:52;10.70;98.20
814;DHT22;389;48.710;9.392;2023-04-02T06:45:30;10.80;98.20
814;DHT22;389;48.710;9.392;2023-04-02T06:47:59;10.80;98.10
814;DHT22;389;48.710;9.392;2023-04-02T06:50:32;10.80;97.80
814;DHT22;389;48.710;9.392;2023-04-02T06:53:06;10.90;97.80
814;DHT22;389;48.710;9.392;2023-04-02T06:55:51;11.00;97.80
814;DHT22;389;48.710;9.392;2023-04-02T06:58:17;11.00;97.70
814;DHT22;389;48.710;9.392;2023-04-02T07:00:46;11.10;97.70
814;DHT22;389;48.710;9.392;2023-04-02T07:03:32;11.10;97.60
814;DHT22;389;48.710;9.392;2023-04-02T07:05:59;11.10;97.60
814;DHT22;389;48.710;9.392;2023-04-02T07:08:26;11.20;97.50
814;DHT22;389;48.710;9.392;2023-04-02T07:10:51;11.20;97.60
814;DHT22;389;48.710;9.392;2023-04-02T07:13:20;11.20;97.10
814;DHT22;389;48.710;9.392;2023-04-02T07:15:50;11.30;97.10
814;DHT22;389;48.710;9.392;2023-04-02T07:18:29;11.30;97.00
814;DHT22;389;48.710;9.392;2023-04-02T07:20:55;11.40;97.00
814;DHT22;389;48.710;9.392;2023-04-02T07:23:21;11.40;97.00
814;DHT22;389;48.710;9.392;2023-04-02T07:25:52;11.50;97.00
814;DHT22;389;48.710;9.392;2023-04-02T07:28:18;11.50;96.90
814;DHT22;389;48.710;9.392;2023-04-02T07:30:44;11.60;96.90
814;DHT22;389;48.710;9.392;2023-04-02T07:33:15;11.60;96.80
814;DHT22;389;48.710;9.392;2023-04-02T07:35:42;11.70;96.80
814;DHT22;389;48.710;9.392;2023-04-02T07:38:08;11.70;96.70
814;DHT22;389;48.710;9.392;2023-04-02T07:40:34;11.70;96.50
814;DHT22;389;48.710;9.392;2023-04-02T07:43:00;11.80;96.50
814;DHT22;389;48.710;9.392;2023-04-02T07:45:26;11.80;96.10
814;DHT22;389;48.710;9.392;2023-04-02T07:47:52;11.90;96.20
814;DHT22;389;48.710;9.392;2023-04-02T07:50:18;11.90;96.20
814;DHT22;389;48.710;9.392;2023-04-02T07:52:44;12.00;96.30
814;DHT22;389;48.710;9.392;2023-04-02T07:55:11;12.00;96.40
814;DHT22;389;48.710;9.392;2023-04-02T07:57:53;12.10;96.40
814;DHT22;389;48.710;9.392;2023-04-02T08:00:20;12.20;96.20
814;DHT22;389;48.710;9.392;2023-04-02T08:02:47;12.20;96.00
814;DHT22;389;48.710;9.392;2023-04-02T08:05:13;12.20;95.90
814;DHT22;389;48.710;9.392;2023-04-02T08:07:40;12.40;95.90
814;DHT22;389;48.710;9.392;2023-04-02T08:10:07;12.30;95.80
814;DHT22;389;48.710;9.392;2023-04-02T08:13:07;12.40;95.70
814;DHT22;389;48.710;9.392;2023-04-02T08:15:32;12.40;95.50
814;DHT22;389;48.710;9.392;2023-04-02T08:17:58;12.50;95.50
814;DHT22;389;48.710;9.392;2023-04-02T08:20:23;12.60;95.40
814;DHT22;389;48.710;9.392;2023-04-02T08:22:49;12.60;95.40
814;DHT22;389;48.710;9.392;2023-04-02T08:25:15;12.70;95.10
814;DHT22;389;48.710;9.392;2023-04-02T08:27:41;12.70;95.00
814;DHT22;389;48.710;9.392;2023-04-02T08:30:07;12.70;95.00
814;DHT22;389;48.710;9.392;2023-04-02T08:32:34;12.80;94.90
814;DHT22;389;48.710;9.392;2023-04-02T08:34:59;12.90;94.90
814;DHT22;389;48.710;9.392;2023-04-02T08:37:25;12.90;94.60
814;DHT22;389;48.710;9.392;2023-04-02T08:39:52;13.10;94.60
814;DHT22;389;48.710;9.392;2023-04-02T08:42:38;13.10;94.50
814;DHT22;389;48.710;9.392;2023-04-02T08:48:19;13.30;94.60
814;DHT22;389;48.710;9.392;2023-04-02T08:50:45;13.40;94.50
814;DHT22;389;48.710;9.392;2023-04-02T08:53:23;13.50;94.20
814;DHT22;389;48.710;9.392;2023-04-02T08:56:01;13.60;93.60
814;DHT22;389;48.710;9.392;2023-04-02T08:58:49;13.60;93.20
814;DHT22;389;48.710;9.392;2023-04-02T09:01:41;13.70;93.00
814;DHT22;389;48.710;9.392;2023-04-02T09:04:17;13.60;93.00
814;DHT22;389;48.710;9.392;2023-04-02T09:06:45;13.60;93.20
814;DHT22;389;48.710;9.392;2023-04-02T09:09:13;13.60;93.20
814;DHT22;389;48.710;9.392;2023-04-02T09:11:59;13.70;93.20
814;DHT22;389;48.710;9.392;2023-04-02T09:14:50;13.70;92.60
814;DHT22;389;48.710;9.392;2023-04-02T09:17:22;13.70;92.50
814;DHT22;389;48.710;9.392;2023-04-02T09:20:02;13.80;92.50
814;DHT22;389;48.710;9.392;2023-04-02T09:22:33;13.90;92.50
814;DHT22;389;48.710;9.392;2023-04-02T09:25:03;14.00;92.50
814;DHT22;389;48.710;9.392;2023-04-02T09:27:32;14.10;92.40
814;DHT22;389;48.710;9.392;2023-04-02T09:32:58;14.30;92.20
814;DHT22;389;48.710;9.392;2023-04-02T09:35:28;14.40;91.90
814;DHT22;389;48.710;9.392;2023-04-02T09:38:21;14.50;91.40
814;DHT22;389;48.710;9.392;2023-04-02T09:43:38;14.60;90.70
814;DHT22;389;48.710;9.392;2023-04-02T09:46:17;14.60;90.60
814;DHT22;389;48.710;9.392;2023-04-02T09:48:50;14.60;90.70
814;DHT22;389;48.710;9.392;2023-04-02T09:51:24;14.80;90.80
814;DHT22;389;48.710;9.392;2023-04-02T09:54:10;14.90;90.40
814;DHT22;389;48.710;9.392;2023-04-02T09:56:39;15.00;90.40
814;DHT22;389;48.710;9.392;2023-04-02T10:01:39;15.40;90.40
814;DHT22;389;48.710;9.392;2023-04-02T10:07:04;15.50;87.70
814;DHT22;389;48.710;9.392;2023-04-02T10:09:35;15.60;88.10
814;DHT22;389;48.710;9.392;2023-04-02T10:12:04;15.60;87.90
814;DHT22;389;48.710;9.392;2023-04-02T10:14:34;15.60;87.30
814;DHT22;389;48.710;9.392;2023-04-02T10:17:16;15.40;87.40
814;DHT22;389;48.710;9.392;2023-04-02T10:19:47;15.30;87.30
814;DHT22;389;48.710;9.392;2023-04-02T10:22:20;15.20;87.60
814;DHT22;389;48.710;9.392;2023-04-02T10:27:29;15.10;89.60
814;DHT22;389;48.710;9.392;2023-04-02T10:32:47;15.10;89.40
814;DHT22;389;48.710;9.392;2023-04-02T10:40:59;14.90;88.70
814;DHT22;389;48.710;9.392;2023-04-02T10:43:35;15.00;88.90
814;DHT22;389;48.710;9.392;2023-04-02T10:46:26;15.20;89.30
814;DHT22;389;48.710;9.392;2023-04-02T10:52:06;15.40;88.40
814;DHT22;389;48.710;9.392;2023-04-02T10:54:46;15.60;88.40
814;DHT22;389;48.710;9.392;2023-04-02T11:00:21;16.10;88.20
814;DHT22;389;48.710;9.392;2023-04-02T11:05:34;16.50;87.00
814;DHT22;389;48.710;9.392;2023-04-02T11:10:54;16.70;86.30
814;DHT22;389;48.710;9.392;2023-04-02T11:14:16;16.80;86.10
814;DHT22;389;48.710;9.392;2023-04-02T11:16:15;16.90;85.70
814;DHT22;389;48.710;9.392;2023-04-02T11:18:42;17.00;85.60
814;DHT22;389;48.710;9.392;2023-04-02T11:21:37;17.00;85.20
814;DHT22;389;48.710;9.392;2023-04-02T11:24:04;16.90;85.00
814;DHT22;389;48.710;9.392;2023-04-02T11:26:43;16.80;84.70
814;DHT22;389;48.710;9.392;2023-04-02T11:29:25;16.70;84.70
814;DHT22;389;48.710;9.392;2023-04-02T11:37:35;16.20;85.50
814;DHT22;389;48.710;9.392;2023-04-02T11:42:39;15.80;86.00
814;DHT22;389;48.710;9.392;2023-04-02T11:50:40;15.10;86.80
814;DHT22;389;48.710;9.392;2023-04-02T12:04:09;14.70;87.80
814;DHT22;389;48.710;9.392;2023-04-02T12:06:52;14.70;88.10
814;DHT22;389;48.710;9.392;2023-04-02T12:09:20;14.70;87.70
814;DHT22;389;48.710;9.392;2023-04-02T12:11:50;14.70;88.40
814;DHT22;389;48.710;9.392;2023-04-02T12:14:45;14.70;87.80
814;DHT22;389;48.710;9.392;2023-04-02T12:17:29;14.60;88.30
814;DHT22;389;48.710;9.392;2023-04-02T12:20:01;14.50;88.70
814;DHT22;389;48.710;9.392;2023-04-02T12:22:54;14.60;88.80
814;DHT22;389;48.710;9.392;2023-04-02T12:25:26;14.60;89.00
814;DHT22;389;48.710;9.392;2023-04-02T12:30:36;14.60;89.10
814;DHT22;389;48.710;9.392;2023-04-02T12:35:47;14.70;89.00
814;DHT22;389;48.710;9.392;2023-04-02T12:38:23;14.70;88.60
814;DHT22;389;48.710;9.392;2023-04-02T12:41:20;14.70;88.50
814;DHT22;389;48.710;9.392;2023-04-02T12:43:56;14.70;88.60
814;DHT22;389;48.710;9.392;2023-04-02T12:46:22;14.70;88.40
814;DHT22;389;48.710;9.392;2023-04-02T12:48:51;14.50;88.60
814;DHT22;389;48.710;9.392;2023-04-02T12:51:17;14.60;89.00
814;DHT22;389;48.710;9.392;2023-04-02T12:53:49;14.50;89.20
814;DHT22;389;48.710;9.392;2023-04-02T12:56:20;14.50;89.20
814;DHT22;389;48.710;9.392;2023-04-02T12:59:00;14.30;89.10
814;DHT22;389;48.710;9.392;2023-04-02T13:01:30;14.50;89.30
814;DHT22;389;48.710;9.392;2023-04-02T13:04:10;14.40;89.50
814;DHT22;389;48.710;9.392;2023-04-02T13:06:40;14.40;90.10
814;DHT22;389;48.710;9.392;2023-04-02T13:11:52;14.40;90.10
814;DHT22;389;48.710;9.392;2023-04-02T13:14:19;14.40;89.80
814;DHT22;389;48.710;9.392;2023-04-02T13:16:46;14.40;89.30
814;DHT22;389;48.710;9.392;2023-04-02T13:21:47;14.50;87.50
814;DHT22;389;48.710;9.392;2023-04-02T13:24:29;14.60;87.50
814;DHT22;389;48.710;9.392;2023-04-02T13:26:57;14.70;87.30
814;DHT22;389;48.710;9.392;2023-04-02T13:29:34;15.00;87.60
814;DHT22;389;48.710;9.392;2023-04-02T13:32:03;14.80;86.90
814;DHT22;389;48.710;9.392;2023-04-02T13:34:29;14.90;86.40
814;DHT22;389;48.710;9.392;2023-04-02T13:36:55;15.00;86.30
814;DHT22;389;48.710;9.392;2023-04-02T13:39:22;15.00;86.30
814;DHT22;389;48.710;9.392;2023-04-02T13:44:29;15.20;86.70
814;DHT22;389;48.710;9.392;2023-04-02T13:46:56;15.20;86.60
814;DHT22;389;48.710;9.392;2023-04-02T13:49:23;15.40;86.50
814;DHT22;389;48.710;9.392;2023-04-02T13:51:53;15.40;86.30
814;DHT22;389;48.710;9.392;2023-04-02T13:54:23;15.50;87.40
814;DHT22;389;48.710;9.392;2023-04-02T13:56:50;15.30;88.70
814;DHT22;389;48.710;9.392;2023-04-02T13:59:16;15.10;89.40
814;DHT22;389;48.710;9.392;2023-04-02T14:01:43;14.80;89.60
814;DHT22;389;48.710;9.392;2023-04-02T14:04:15;14.60;90.50
814;DHT22;389;48.710;9.392;2023-04-02T14:07:07;14.40;90.30
814;DHT22;389;48.710;9.392;2023-04-02T14:09:50;14.10;90.40
814;DHT22;389;48.710;9.392;2023-04-02T14:12:36;13.90;90.90
814;DHT22;389;48.710;9.392;2023-04-02T14:17:52;13.50;91.40
814;DHT22;389;48.710;9.392;2023-04-02T14:31:36;13.10;93.20
814;DHT22;389;48.710;9.392;2023-04-02T14:34:24;13.00;93.40
814;DHT22;389;48.710;9.392;2023-04-02T14:37:05;13.00;93.60
814;DHT22;389;48.710;9.392;2023-04-02T14:40:13;12.90;93.70
814;DHT22;389;48.710;9.392;2023-04-02T14:42:43;12.80;93.90
814;DHT22;389;48.710;9.392;2023-04-02T14:48:04;12.80;93.70
814;DHT22;389;48.710;9.392;2023-04-02T14:50:38;12.80;93.70
814;DHT22;389;48.710;9.392;2023-04-02T14:53:20;12.80;93.60
814;DHT22;389;48.710;9.392;2023-04-02T14:55:50;12.70;93.60
814;DHT22;389;48.710;9.392;2023-04-02T15:01:22;12.70;93.60
814;DHT22;389;48.710;9.392;2023-04-02T15:04:00;12.70;93.50
814;DHT22;389;48.710;9.392;2023-04-02T15:06:37;12.70;93.30
814;DHT22;389;48.710;9.392;2023-04-02T15:09:10;12.70;93.50
814;DHT22;389;48.710;9.392;2023-04-02T15:11:46;12.70;93.60
814;DHT22;389;48.710;9.392;2023-04-02T15:16:44;12.60;93.90
814;DHT22;389;48.710;9.392;2023-04-02T15:19:13;12.60;93.90
814;DHT22;389;48.710;9.392;2023-04-02T15:24:29;12.50;93.80
814;DHT22;389;48.710;9.392;2023-04-02T15:32:54;12.40;93.40
814;DHT22;389;48.710;9.392;2023-04-02T15:38:17;12.40;93.50
814;DHT22;389;48.710;9.392;2023-04-02T15:47:06;12.40;93.50
814;DHT22;389;48.710;9.392;2023-04-02T16:00:33;12.00;94.10
814;DHT22;389;48.710;9.392;2023-04-02T16:05:54;11.90;94.20
814;DHT22;389;48.710;9.392;2023-04-02T16:08:50;11.80;94.20
814;DHT22;389;48.710;9.392;2023-04-02T16:11:22;11.70;94.50
814;DHT22;389;48.710;9.392;2023-04-02T16:13:47;11.50;94.60
814;DHT22;389;48.710;9.392;2023-04-02T16:16:24;11.50;94.70
814;DHT22;389;48.710;9.392;2023-04-02T16:19:16;11.40;94.20
814;DHT22;389;48.710;9.392;2023-04-02T16:21:53;11.30;94.20
814;DHT22;389;48.710;9.392;2023-04-02T16:24:20;11.30;94.10
814;DHT22;389;48.710;9.392;2023-04-02T16:29:41;11.20;94.10
814;DHT22;389;48.710;9.392;2023-04-02T16:35:01;11.30;94.20
814;DHT22;389;48.710;9.392;2023-04-02T16:37:41;11.10;94.30
814;DHT22;389;48.710;9.392;2023-04-02T16:45:46;10.90;94.00
814;DHT22;389;48.710;9.392;2023-04-02T16:57:02;10.70;94.00
814;DHT22;389;48.710;9.392;2023-04-02T17:04:49;10.70;94.20
814;DHT22;389;48.710;9.392;2023-04-02T17:07:23;10.70;94.20
814;DHT22;389;48.710;9.392;2023-04-02T17:09:55;10.60;94.10
814;DHT22;389;48.710;9.392;2023-04-02T17:12:27;10.60;94.10
814;DHT22;389;48.710;9.392;2023-04-02T17:15:16;10.60;94.00
814;DHT22;389;48.710;9.392;2023-04-02T17:17:43;10.50;93.90
814;DHT22;389;48.710;9.392;2023-04-02T17:20:23;10.50;93.90
814;DHT22;389;48.710;9.392;2023-04-02T17:22:50;10.50;93.80
814;DHT22;389;48.710;9.392;2023-04-02T17:25:22;10.50;93.80
814;DHT22;389;48.710;9.392;2023-04-02T17:27:54;10.50;93.80
814;DHT22;389;48.710;9.392;2023-04-02T17:30:45;10.40;93.50
814;DHT22;389;48.710;9.392;2023-04-02T17:33:15;10.40;93.20
814;DHT22;389;48.710;9.392;2023-04-02T17:36:00;10.20;93.20
814;DHT22;389;48.710;9.392;2023-04-02T17:49:48;9.70;94.80
814;DHT22;389;48.710;9.392;2023-04-02T18:01:45;9.40;94.80
814;DHT22;389;48.710;9.392;2023-04-02T18:04:36;9.30;94.90
814;DHT22;389;48.710;9.392;2023-04-02T18:07:34;9.20;95.00
814;DHT22;389;48.710;9.392;2023-04-02T18:10:34;9.10;95.00
814;DHT22;389;48.710;9.392;2023-04-02T18:13:26;9.10;95.00
814;DHT22;389;48.710;9.392;2023-04-02T18:16:21;9.00;95.10
814;DHT22;389;48.710;9.392;2023-04-02T18:19:11;8.90;95.10
814;DHT22;389;48.710;9.392;2023-04-02T18:22:06;8.90;95.20
814;DHT22;389;48.710;9.392;2023-04-02T18:24:40;8.90;95.20
814;DHT22;389;48.710;9.392;2023-04-02T18:30:22;8.90;95.20
814;DHT22;389;48.710;9.392;2023-04-02T18:46:53;8.70;94.90
814;DHT22;389;48.710;9.392;2023-04-02T18:51:47;8.60;94.60
814;DHT22;389;48.710;9.392;2023-04-02T18:54:37;8.50;94.50
814;DHT22;389;48.710;9.392;2023-04-02T18:57:14;8.50;94.50
814;DHT22;389;48.710;9.392;2023-04-02T18:59:46;8.40;94.50
814;DHT22;389;48.710;9.392;2023-04-02T19:05:02;8.10;94.60
814;DHT22;389;48.710;9.392;2023-04-02T19:07:31;8.00;94.60
814;DHT22;389;48.710;9.392;2023-04-02T19:10:06;7.90;94.70
814;DHT22;389;48.710;9.392;2023-04-02T19:12:34;7.90;94.80
814;DHT22;389;48.710;9.392;2023-04-02T19:15:00;7.80;94.70
814;DHT22;389;48.710;9.392;2023-04-02T19:17:48;7.70;94.50
814;DHT22;389;48.710;9.392;2023-04-02T19:20:43;7.70;94.60
814;DHT22;389;48.710;9.392;2023-04-02T19:23:36;7.60;94.50
814;DHT22;389;48.710;9.392;2023-04-02T19:26:15;7.60;94.50
814;DHT22;389;48.710;9.392;2023-04-02T19:29:04;7.50;94.40
814;DHT22;389;48.710;9.392;2023-04-02T19:34:54;7.30;94.20
814;DHT22;389;48.710;9.392;2023-04-02T19:37:43;7.30;94.20
814;DHT22;389;48.710;9.392;2023-04-02T19:42:51;7.20;94.00
814;DHT22;389;48.710;9.392;2023-04-02T19:45:34;7.20;93.90
814;DHT22;389;48.710;9.392;2023-04-02T19:48:18;7.10;93.80
814;DHT22;389;48.710;9.392;2023-04-02T19:50:45;7.00;93.80
814;DHT22;389;48.710;9.392;2023-04-02T19:53:11;7.00;93.80
814;DHT22;389;48.710;9.392;2023-04-02T19:55:36;6.90;93.70
814;DHT22;389;48.710;9.392;2023-04-02T19:58:02;6.80;93.80
814;DHT22;389;48.710;9.392;2023-04-02T20:00:28;6.80;93.80
814;DHT22;389;48.710;9.392;2023-04-02T20:02:54;6.80;93.80
814;DHT22;389;48.710;9.392;2023-04-02T20:05:19;6.80;93.70
814;DHT22;389;48.710;9.392;2023-04-02T20:07:45;6.80;93.60
814;DHT22;389;48.710;9.392;2023-04-02T20:10:11;6.70;93.50
814;DHT22;389;48.710;9.392;2023-04-02T20:12:36;6.80;93.60
814;DHT22;389;48.710;9.392;2023-04-02T20:15:03;6.70;93.50
814;DHT22;389;48.710;9.392;2023-04-02T20:17:29;6.70;93.40
814;DHT22;389;48.710;9.392;2023-04-02T20:19:55;6.70;93.50
814;DHT22;389;48.710;9.392;2023-04-02T20:22:22;6.70;93.50
814;DHT22;389;48.710;9.392;2023-04-02T20:24:48;6.70;93.50
814;DHT22;389;48.710;9.392;2023-04-02T20:27:13;6.70;93.40
814;DHT22;389;48.710;9.392;2023-04-02T20:29:40;6.80;93.40
814;DHT22;389;48.710;9.392;2023-04-02T20:32:07;6.80;93.30
814;DHT22;389;48.710;9.392;2023-04-02T20:34:33;6.80;92.90
814;DHT22;389;48.710;9.392;2023-04-02T20:36:59;6.70;92.70
814;DHT22;389;48.710;9.392;2023-04-02T20:39:25;6.70;92.90
814;DHT22;389;48.710;9.392;2023-04-02T20:41:50;6.70;92.50
814;DHT22;389;48.710;9.392;2023-04-02T20:44:16;6.70;92.30
814;DHT22;389;48.710;9.392;2023-04-02T20:46:42;6.60;92.10
814;DHT22;389;48.710;9.392;2023-04-02T20:49:07;6.60;92.00
814;DHT22;389;48.710;9.392;2023-04-02T20:51:33;6.60;91.90
814;DHT22;389;48.710;9.392;2023-04-02T20:53:59;6.60;91.80
814;DHT22;389;48.710;9.392;2023-04-02T20:56:25;6.60;91.70
814;DHT22;389;48.710;9.392;2023-04-02T20:58:53;6.60;91.70
814;DHT22;389;48.710;9.392;2023-04-02T21:01:20;6.50;91.60
814;DHT22;389;48.710;9.392;2023-04-02T21:03:52;6.50;91.40
814;DHT22;389;48.710;9.392;2023-04-02T21:06:21;6.50;91.30
814;DHT22;389;48.710;9.392;2023-04-02T21:08:48;6.60;91.40
814;DHT22;389;48.710;9.392;2023-04-02T21:11:15;6.50;91.20
814;DHT22;389;48.710;9.392;2023-04-02T21:13:41;6.60;91.30
814;DHT22;389;48.710;9.392;2023-04-02T21:16:22;6.50;91.20
814;DHT22;389;48.710;9.392;2023-04-02T21:18:50;6.50;91.30
814;DHT22;389;48.710;9.392;2023-04-02T21:21:18;6.50;91.20
814;DHT22;389;48.710;9.392;2023-04-02T21:23:44;6.50;91.30
814;DHT22;389;48.710;9.392;2023-04-02T21:26:13;6.40;91.30
814;DHT22;389;48.710;9.392;2023-04-02T21:28:40;6.50;91.30
814;DHT22;389;48.710;9.392;2023-04-02T21:31:12;6.50;91.30
814;DHT22;389;48.710;9.392;2023-04-02T21:33:41;6.50;91.30
814;DHT22;389;48.710;9.392;2023-04-02T21:38:34;6.50;91.30
814;DHT22;389;48.710;9.392;2023-04-02T21:43:42;6.50;91.30
814;DHT22;389;48.710;9.392;2023-04-02T21:46:10;6.60;91.40
814;DHT22;389;48.710;9.392;2023-04-02T21:48:39;6.60;91.50
814;DHT22;389;48.710;9.392;2023-04-02T21:51:14;6.60;91.40
814;DHT22;389;48.710;9.392;2023-04-02T21:53:41;6.60;91.40
814;DHT22;389;48.710;9.392;2023-04-02T21:56:10;6.60;91.40
814;DHT22;389;48.710;9.392;2023-04-02T21:58:37;6.50;91.30